createdAt,value
2023-01-31T00:01:48.744Z,81.56
2023-01-31T00:04:18.966Z,81.61
2023-01-31T00:06:52.293Z,81.56
2023-01-31T00:09:22.542Z,81.76
2023-01-31T00:11:52.839Z,81.29
2023-01-31T00:14:22.987Z,81.10
2023-01-31T00:16:53.355Z,80.91
2023-01-31T00:19:23.961Z,81.04
2023-01-31T00:21:55.162Z,81.32
2023-01-31T00:24:25.871Z,81.05
2023-01-31T00:26:57.999Z,81.24
2023-01-31T00:29:31.021Z,81.11
2023-01-31T00:32:01.209Z,80.96
2023-01-31T00:34:31.096Z,81.11
2023-01-31T00:37:01.221Z,81.30
2023-01-31T00:39:31.079Z,81.41
2023-01-31T00:42:01.063Z,81.57
2023-01-31T00:44:30.788Z,81.65
2023-01-31T00:47:03.673Z,81.72
2023-01-31T00:49:33.789Z,81.94
2023-01-31T00:52:03.673Z,82.15
2023-01-31T00:54:35.627Z,82.26
2023-01-31T00:57:05.965Z,82.24
2023-01-31T00:59:36.913Z,82.24
2023-01-31T01:02:08.648Z,82.24
2023-01-31T01:04:39.562Z,82.07
2023-01-31T01:07:09.669Z,82.28
2023-01-31T01:09:41.983Z,82.45
2023-01-31T01:12:12.144Z,82.62
2023-01-31T01:14:43.253Z,82.46
2023-01-31T01:17:17.405Z,82.75
2023-01-31T01:19:49.205Z,83.09
2023-01-31T01:22:22.986Z,83.16
2023-01-31T01:24:53.398Z,83.54
2023-01-31T01:27:24.039Z,83.46
2023-01-31T01:29:55.791Z,83.58
2023-01-31T01:32:29.897Z,83.41
2023-01-31T01:35:01.626Z,83.59
2023-01-31T01:37:33.909Z,84.00
2023-01-31T01:40:06.066Z,83.87
2023-01-31T01:42:37.653Z,84.04
2023-01-31T01:45:21.518Z,84.29
2023-01-31T01:47:55.939Z,84.19
2023-01-31T01:50:38.164Z,84.60
2023-01-31T01:53:14.873Z,84.41
2023-01-31T01:55:51.287Z,85.30
2023-01-31T01:58:32.560Z,85.31
2023-01-31T02:01:04.209Z,85.64
2023-01-31T02:03:34.911Z,85.54
2023-01-31T02:06:07.808Z,85.66
2023-01-31T02:08:41.741Z,85.45
2023-01-31T02:11:26.183Z,85.69
2023-01-31T02:14:09.672Z,85.87
2023-01-31T02:16:40.378Z,85.55
2023-01-31T02:19:35.039Z,86.01
2023-01-31T02:22:17.980Z,86.14
2023-01-31T02:25:00.831Z,86.25
2023-01-31T02:28:05.010Z,86.29
2023-01-31T02:30:50.190Z,86.05
2023-01-31T02:33:34.384Z,86.62
2023-01-31T02:36:31.319Z,86.79
2023-01-31T02:39:25.295Z,86.57
2023-01-31T02:42:31.983Z,86.60
2023-01-31T02:45:06.662Z,86.71
2023-01-31T02:47:58.596Z,86.76
2023-01-31T02:50:40.255Z,86.57
2023-01-31T02:53:22.568Z,86.43
2023-01-31T02:56:17.809Z,86.66
2023-01-31T02:59:00.328Z,86.90
2023-01-31T03:01:43.435Z,86.99
2023-01-31T03:04:15.544Z,87.28
2023-01-31T03:06:55.848Z,87.21
2023-01-31T03:09:47.343Z,87.29
2023-01-31T03:12:39.093Z,87.22
2023-01-31T03:15:16.351Z,87.33
2023-01-31T03:18:11.831Z,87.43
2023-01-31T03:20:49.591Z,87.44
2023-01-31T03:23:27.949Z,87.61
2023-01-31T03:26:01.575Z,87.66
2023-01-31T03:28:38.282Z,87.48
2023-01-31T03:31:45.690Z,87.35
2023-01-31T03:34:17.333Z,87.44
2023-01-31T03:36:56.031Z,87.97
2023-01-31T03:40:22.640Z,88.03
2023-01-31T03:43:06.818Z,88.00
2023-01-31T03:45:48.106Z,88.14
2023-01-31T03:48:23.701Z,88.11
2023-01-31T03:50:59.777Z,88.25
2023-01-31T03:53:39.172Z,88.29
2023-01-31T03:56:23.442Z,88.32
2023-01-31T03:59:00.445Z,88.35
2023-01-31T04:01:36.309Z,88.37
2023-01-31T04:04:33.968Z,88.17
2023-01-31T04:07:04.604Z,88.38
2023-01-31T04:09:35.434Z,88.46
2023-01-31T04:12:06.690Z,88.54
2023-01-31T04:14:36.970Z,88.56
2023-01-31T04:17:07.113Z,88.60
2023-01-31T04:19:36.882Z,88.68
2023-01-31T04:22:06.962Z,88.86
2023-01-31T04:24:37.365Z,88.92
2023-01-31T04:27:07.314Z,88.82
2023-01-31T04:29:37.081Z,88.54
2023-01-31T04:32:07.330Z,88.63
2023-01-31T04:34:37.146Z,88.69
2023-01-31T04:37:07.158Z,88.70
2023-01-31T04:39:36.941Z,88.54
2023-01-31T04:42:06.950Z,88.44
2023-01-31T04:44:36.672Z,88.59
2023-01-31T04:47:06.656Z,88.59
2023-01-31T04:49:36.616Z,88.67
2023-01-31T04:52:07.365Z,88.75
2023-01-31T04:54:37.902Z,89.01
2023-01-31T04:57:07.832Z,88.96
2023-01-31T04:59:37.660Z,89.17
2023-01-31T05:02:07.581Z,89.18
2023-01-31T05:04:37.325Z,89.26
2023-01-31T05:07:07.841Z,89.35
2023-01-31T05:09:37.962Z,89.08
2023-01-31T05:12:08.957Z,89.00
2023-01-31T05:14:39.159Z,89.00
2023-01-31T05:17:09.020Z,88.98
2023-01-31T05:19:38.986Z,88.94
2023-01-31T05:22:08.775Z,89.10
2023-01-31T05:24:38.969Z,88.97
2023-01-31T05:27:08.957Z,89.07
2023-01-31T05:29:39.204Z,88.86
2023-01-31T05:32:09.628Z,88.95
2023-01-31T05:34:39.929Z,88.87
2023-01-31T05:37:09.752Z,88.85
2023-01-31T05:39:39.927Z,88.61
2023-01-31T05:42:09.680Z,88.47
2023-01-31T05:44:39.854Z,88.43
2023-01-31T05:47:09.596Z,88.36
2023-01-31T05:49:39.492Z,88.34
2023-01-31T05:52:09.282Z,88.61
2023-01-31T05:54:39.325Z,88.42
2023-01-31T05:57:10.978Z,88.41
2023-01-31T05:59:41.050Z,88.62
2023-01-31T06:02:12.500Z,88.44
2023-01-31T06:04:42.763Z,88.30
2023-01-31T06:07:12.508Z,88.54
2023-01-31T06:09:43.064Z,88.36
2023-01-31T06:12:16.388Z,88.28
2023-01-31T06:14:47.292Z,88.30
2023-01-31T06:17:17.928Z,88.30
2023-01-31T06:19:47.888Z,88.10
2023-01-31T06:22:17.660Z,88.13
2023-01-31T06:24:47.977Z,88.28
2023-01-31T06:27:17.754Z,88.42
2023-01-31T06:29:47.656Z,87.93
2023-01-31T06:32:17.424Z,87.81
2023-01-31T06:34:47.515Z,88.00
2023-01-31T06:37:17.254Z,87.86
2023-01-31T06:39:47.146Z,87.51
2023-01-31T06:42:16.902Z,87.41
2023-01-31T06:44:46.856Z,87.76
2023-01-31T06:47:16.677Z,87.98
2023-01-31T06:49:46.689Z,87.93
2023-01-31T06:52:16.445Z,88.42
2023-01-31T06:54:46.756Z,88.25
2023-01-31T06:57:16.506Z,87.89
2023-01-31T06:59:46.546Z,87.60
2023-01-31T07:02:16.339Z,87.71
2023-01-31T07:04:46.460Z,87.59
2023-01-31T07:07:16.240Z,87.87
2023-01-31T07:09:46.289Z,87.90
2023-01-31T07:12:16.031Z,87.98
2023-01-31T07:14:46.121Z,88.15
2023-01-31T07:17:15.869Z,88.35
2023-01-31T07:19:45.844Z,88.61
2023-01-31T07:22:15.600Z,88.63
2023-01-31T07:24:45.792Z,88.74
2023-01-31T07:27:15.736Z,88.88
2023-01-31T07:29:45.707Z,88.88
2023-01-31T07:32:15.523Z,88.89
2023-01-31T07:34:45.625Z,88.92
2023-01-31T07:37:15.440Z,88.91
2023-01-31T07:39:45.455Z,89.22
2023-01-31T07:42:15.173Z,89.12
2023-01-31T07:44:46.061Z,89.11
2023-01-31T07:47:16.074Z,89.08
2023-01-31T07:49:45.780Z,89.20
2023-01-31T07:52:15.887Z,88.92
2023-01-31T07:54:45.671Z,89.08
2023-01-31T07:57:18.685Z,88.98
2023-01-31T07:59:48.839Z,88.99
2023-01-31T08:02:38.085Z,88.90
2023-01-31T08:05:08.586Z,89.06
2023-01-31T08:07:38.782Z,89.14
2023-01-31T08:10:09.087Z,89.16
2023-01-31T08:12:38.856Z,89.18
2023-01-31T08:15:09.607Z,88.95
2023-01-31T08:17:39.381Z,88.95
2023-01-31T08:20:10.234Z,88.92
2023-01-31T08:22:40.183Z,88.88
2023-01-31T08:25:10.157Z,89.04
2023-01-31T08:27:40.124Z,89.01
2023-01-31T08:30:10.513Z,89.06
2023-01-31T08:32:40.659Z,89.03
2023-01-31T08:35:11.005Z,88.99
2023-01-31T08:37:41.048Z,89.09
2023-01-31T08:40:11.471Z,89.37
2023-01-31T08:42:41.708Z,89.23
2023-01-31T08:45:11.892Z,88.92
2023-01-31T08:47:41.948Z,89.08
2023-01-31T08:50:26.022Z,89.04
2023-01-31T08:52:59.413Z,88.91
2023-01-31T08:55:31.156Z,88.74
2023-01-31T08:58:03.088Z,88.42
2023-01-31T09:00:33.745Z,88.42
2023-01-31T09:03:03.556Z,88.59
2023-01-31T09:05:34.490Z,88.63
2023-01-31T09:08:04.267Z,88.64
2023-01-31T09:10:34.206Z,88.77
2023-01-31T09:13:04.006Z,88.80
2023-01-31T09:15:33.916Z,88.87
2023-01-31T09:18:04.819Z,88.84
2023-01-31T09:20:34.832Z,88.90
2023-01-31T09:23:04.594Z,88.54
2023-01-31T09:25:45.754Z,88.35
2023-01-31T09:28:17.239Z,88.03
2023-01-31T09:30:47.028Z,87.99
2023-01-31T09:33:17.371Z,87.75
2023-01-31T09:36:01.006Z,87.74
2023-01-31T09:38:31.260Z,87.10
2023-01-31T09:41:05.847Z,86.93
2023-01-31T09:43:41.784Z,86.84
2023-01-31T09:46:20.553Z,86.95
2023-01-31T09:48:54.270Z,86.74
2023-01-31T09:51:25.651Z,86.60
2023-01-31T09:53:58.841Z,86.48
2023-01-31T09:56:43.091Z,85.88
2023-01-31T09:59:22.044Z,85.96
2023-01-31T10:02:15.944Z,86.14
2023-01-31T10:05:07.975Z,86.18
2023-01-31T10:08:11.993Z,85.93
2023-01-31T10:10:49.668Z,85.29
2023-01-31T10:13:37.693Z,85.46
2023-01-31T10:16:15.105Z,85.15
2023-01-31T10:18:52.558Z,84.70
2023-01-31T10:21:27.934Z,76.14
2023-01-31T10:24:01.831Z,72.48
2023-01-31T10:26:32.882Z,70.41
2023-01-31T10:29:14.851Z,70.15
2023-01-31T10:32:07.100Z,67.57
2023-01-31T10:34:54.677Z,68.74
2023-01-31T10:37:34.815Z,69.85
2023-01-31T10:40:14.265Z,70.56
2023-01-31T10:42:49.794Z,71.72
2023-01-31T10:45:32.156Z,71.64
2023-01-31T10:48:21.815Z,70.53
2023-01-31T10:51:19.703Z,71.02
2023-01-31T10:54:14.245Z,71.51
2023-01-31T10:56:47.491Z,71.23
2023-01-31T10:59:30.973Z,70.21
2023-01-31T11:02:03.401Z,70.07
2023-01-31T11:04:39.227Z,70.54
2023-01-31T11:07:10.108Z,69.32
2023-01-31T11:09:44.577Z,69.01
2023-01-31T11:12:14.548Z,66.97
2023-01-31T11:14:44.380Z,66.90
2023-01-31T11:17:23.879Z,71.69
2023-01-31T11:19:57.139Z,70.87
2023-01-31T11:22:31.975Z,67.14
2023-01-31T11:25:05.413Z,66.97
2023-01-31T11:27:43.877Z,65.78
2023-01-31T11:30:31.932Z,66.72
2023-01-31T11:33:02.690Z,65.48
2023-01-31T11:35:34.867Z,65.86
2023-01-31T11:38:14.187Z,64.25
2023-01-31T11:40:44.147Z,63.54
2023-01-31T11:43:25.675Z,63.81
2023-01-31T11:46:04.321Z,64.98
2023-01-31T11:48:41.559Z,63.17
2023-01-31T11:51:28.344Z,63.17
2023-01-31T11:53:59.167Z,70.35
2023-01-31T11:56:32.805Z,68.59
2023-01-31T11:59:10.972Z,66.28
2023-01-31T12:01:54.290Z,64.83
2023-01-31T12:04:37.387Z,64.11
2023-01-31T12:07:32.149Z,65.06
2023-01-31T12:10:02.414Z,65.66
2023-01-31T12:12:36.558Z,63.78
2023-01-31T12:15:16.731Z,63.40
2023-01-31T12:17:50.839Z,63.85
2023-01-31T12:20:54.761Z,64.86
2023-01-31T12:23:41.061Z,62.72
2023-01-31T12:26:18.759Z,61.44
2023-01-31T12:29:06.668Z,61.71
2023-01-31T12:31:56.959Z,61.58
2023-01-31T12:34:57.899Z,62.33
2023-01-31T12:37:46.090Z,63.00
2023-01-31T12:40:25.652Z,61.69
2023-01-31T12:43:01.082Z,62.60
2023-01-31T12:46:08.074Z,61.43
2023-01-31T12:48:59.490Z,61.24
2023-01-31T12:52:00.372Z,64.01
2023-01-31T12:54:43.766Z,62.76
2023-01-31T12:57:21.871Z,62.83
2023-01-31T13:00:07.746Z,61.19
2023-01-31T13:03:00.280Z,60.30
2023-01-31T13:05:58.938Z,60.99
2023-01-31T13:08:36.207Z,62.80
2023-01-31T13:11:24.342Z,61.78
2023-01-31T13:14:03.246Z,59.84
2023-01-31T13:16:38.612Z,60.47
2023-01-31T13:19:22.151Z,57.46
2023-01-31T13:21:59.639Z,57.19
2023-01-31T13:24:42.550Z,57.13
2023-01-31T13:27:18.677Z,58.29
2023-01-31T13:30:18.642Z,59.24
2023-01-31T13:32:51.665Z,62.40
2023-01-31T13:35:24.131Z,63.15
2023-01-31T13:38:02.466Z,63.22
2023-01-31T13:40:37.877Z,62.83
2023-01-31T13:43:17.473Z,63.98
2023-01-31T13:45:53.788Z,62.00
2023-01-31T13:48:47.094Z,63.21
2023-01-31T13:51:29.488Z,61.97
2023-01-31T13:54:24.094Z,61.62
2023-01-31T13:57:01.973Z,60.26
2023-01-31T13:59:42.665Z,61.68
2023-01-31T14:02:21.469Z,62.46
2023-01-31T14:04:53.807Z,62.79
2023-01-31T14:07:25.117Z,62.13
2023-01-31T14:09:57.832Z,63.16
2023-01-31T14:12:36.287Z,62.19
2023-01-31T14:15:44.382Z,61.26
2023-01-31T14:18:14.363Z,62.31
2023-01-31T14:20:44.146Z,65.19
2023-01-31T14:23:48.181Z,66.86
2023-01-31T14:26:55.812Z,68.71
2023-01-31T14:29:28.738Z,69.50
2023-01-31T14:31:59.155Z,70.12
2023-01-31T14:37:36.909Z,71.27
2023-01-31T14:40:31.109Z,71.50
2023-01-31T14:43:23.697Z,71.29
2023-01-31T14:46:06.560Z,70.57
2023-01-31T14:48:58.047Z,69.95
2023-01-31T14:51:45.160Z,70.87
2023-01-31T14:54:36.482Z,72.75
2023-01-31T14:57:16.083Z,72.77
2023-01-31T14:59:49.131Z,70.68
2023-01-31T15:02:41.819Z,70.96
2023-01-31T15:05:39.560Z,71.08
2023-01-31T15:08:16.342Z,71.09
2023-01-31T15:11:08.357Z,72.07
2023-01-31T15:13:40.492Z,70.49
2023-01-31T15:16:27.557Z,70.32
2023-01-31T15:19:14.210Z,69.09
2023-01-31T15:21:52.040Z,68.44
2023-01-31T15:24:35.293Z,68.09
2023-01-31T15:27:14.000Z,67.28
2023-01-31T15:30:14.859Z,67.30
2023-01-31T15:33:10.583Z,68.41
2023-01-31T15:36:02.715Z,68.82
2023-01-31T15:38:56.541Z,70.62
2023-01-31T15:41:37.214Z,71.86
2023-01-31T15:44:24.620Z,71.53
2023-01-31T15:46:56.541Z,72.54
2023-01-31T15:49:39.648Z,71.85
2023-01-31T15:52:15.576Z,71.71
2023-01-31T15:54:56.328Z,69.93
2023-01-31T15:57:38.148Z,70.64
2023-01-31T16:00:09.458Z,71.44
2023-01-31T16:02:39.664Z,71.66
2023-01-31T16:05:09.998Z,71.03
2023-01-31T16:07:42.088Z,73.06
2023-01-31T16:10:15.081Z,72.65
2023-01-31T16:12:50.112Z,70.78
2023-01-31T16:15:24.781Z,66.90
2023-01-31T16:18:04.860Z,65.31
2023-01-31T16:20:54.578Z,65.13
2023-01-31T16:23:38.292Z,66.13
2023-01-31T16:26:22.187Z,68.15
2023-01-31T16:28:58.257Z,68.76
2023-01-31T16:31:35.155Z,69.12
2023-01-31T16:34:16.420Z,68.51
2023-01-31T16:36:52.573Z,67.39
2023-01-31T16:39:34.848Z,67.72
2023-01-31T16:42:24.849Z,65.18
2023-01-31T16:44:55.264Z,63.38
2023-01-31T16:47:52.051Z,63.81
2023-01-31T16:50:36.640Z,62.35
2023-01-31T16:53:23.585Z,63.14
2023-01-31T16:56:16.433Z,63.93
2023-01-31T16:58:50.341Z,65.62
2023-01-31T17:01:35.245Z,65.69
2023-01-31T17:04:11.472Z,63.90
2023-01-31T17:06:46.468Z,62.06
2023-01-31T17:09:20.983Z,61.38
2023-01-31T17:11:51.173Z,62.85
2023-01-31T17:14:23.952Z,61.41
2023-01-31T17:16:56.254Z,60.78
2023-01-31T17:19:27.399Z,60.32
2023-01-31T17:21:57.854Z,61.81
2023-01-31T17:24:27.909Z,64.84
2023-01-31T17:26:58.198Z,66.92
2023-01-31T17:29:29.382Z,65.28
2023-01-31T17:32:00.278Z,65.12
2023-01-31T17:34:33.665Z,66.42
2023-01-31T17:37:04.019Z,65.52
2023-01-31T17:39:36.885Z,64.07
2023-01-31T17:42:08.387Z,64.72
2023-01-31T17:44:40.374Z,64.90
2023-01-31T17:47:17.690Z,64.57
2023-01-31T17:49:47.727Z,63.86
2023-01-31T17:52:18.100Z,64.28
2023-01-31T17:54:48.354Z,64.15
2023-01-31T17:57:18.157Z,64.86
2023-01-31T17:59:48.235Z,66.00
2023-01-31T18:02:18.177Z,64.00
2023-01-31T18:04:49.586Z,64.86
2023-01-31T18:07:19.986Z,65.54
2023-01-31T18:09:51.308Z,66.31
2023-01-31T18:12:21.512Z,65.43
2023-01-31T18:14:51.338Z,66.01
2023-01-31T18:17:21.847Z,64.57
2023-01-31T18:19:51.714Z,63.87
2023-01-31T18:22:21.645Z,63.94
2023-01-31T18:24:52.172Z,64.19
2023-01-31T18:27:23.138Z,63.29
2023-01-31T18:29:53.710Z,64.03
2023-01-31T18:32:41.828Z,64.53
2023-01-31T18:35:12.314Z,64.20
2023-01-31T18:37:44.421Z,64.23
2023-01-31T18:40:15.840Z,65.74
2023-01-31T18:42:47.069Z,66.77
2023-01-31T18:45:17.458Z,67.85
2023-01-31T18:47:47.374Z,68.15
2023-01-31T18:50:17.597Z,66.97
2023-01-31T18:52:48.579Z,65.04
2023-01-31T18:55:19.326Z,63.62
2023-01-31T18:57:49.405Z,64.36
2023-01-31T19:00:20.239Z,62.18
2023-01-31T19:02:54.970Z,61.95
2023-01-31T19:05:25.144Z,60.83
2023-01-31T19:07:55.173Z,63.68
2023-01-31T19:10:25.406Z,64.29
2023-01-31T19:12:55.383Z,62.52
2023-01-31T19:15:25.585Z,58.89
2023-01-31T19:17:55.555Z,57.07
2023-01-31T19:20:26.117Z,56.68
2023-01-31T19:22:56.795Z,58.18
2023-01-31T19:25:26.659Z,59.53
2023-01-31T19:27:57.053Z,58.02
2023-01-31T19:30:27.290Z,57.25
2023-01-31T19:32:58.150Z,59.49
2023-01-31T19:35:31.716Z,59.86
2023-01-31T19:38:01.899Z,58.53
2023-01-31T19:40:31.842Z,60.48
2023-01-31T19:43:02.157Z,61.90
2023-01-31T19:45:32.723Z,63.06
2023-01-31T19:48:02.782Z,63.46
2023-01-31T19:50:32.653Z,63.99
2023-01-31T19:53:02.895Z,64.26
2023-01-31T19:55:34.510Z,64.24
2023-01-31T19:58:04.868Z,64.46
2023-01-31T20:00:34.672Z,63.95
2023-01-31T20:03:05.987Z,64.38
2023-01-31T20:05:36.292Z,64.93
2023-01-31T20:08:06.452Z,64.60
2023-01-31T20:10:39.631Z,64.83
2023-01-31T20:13:09.964Z,65.18
2023-01-31T20:15:39.883Z,65.11
2023-01-31T20:18:09.840Z,65.19
2023-01-31T20:20:39.867Z,64.78
2023-01-31T20:23:10.522Z,65.13
2023-01-31T20:25:40.586Z,66.15
2023-01-31T20:28:13.892Z,66.07
2023-01-31T20:30:44.127Z,66.38
2023-01-31T20:33:17.963Z,67.51
2023-01-31T20:36:07.280Z,67.83
2023-01-31T20:38:42.064Z,68.06
2023-01-31T20:41:18.305Z,67.17
2023-01-31T20:43:59.158Z,68.48
2023-01-31T20:46:50.644Z,67.84
2023-01-31T20:49:40.445Z,66.94
2023-01-31T20:52:30.718Z,67.10
2023-01-31T20:55:24.035Z,67.70
2023-01-31T20:58:28.217Z,67.80
2023-01-31T21:01:06.521Z,67.75
2023-01-31T21:03:41.441Z,66.95
2023-01-31T21:06:15.103Z,65.76
2023-01-31T21:08:48.530Z,64.87
2023-01-31T21:11:20.759Z,64.08
2023-01-31T21:13:53.664Z,63.59
2023-01-31T21:16:29.814Z,64.80
2023-01-31T21:19:07.901Z,65.15
2023-01-31T21:21:41.673Z,65.32
2023-01-31T21:24:14.620Z,66.65
2023-01-31T21:26:46.655Z,69.04
2023-01-31T21:29:19.105Z,69.41
2023-01-31T21:31:52.139Z,69.34
2023-01-31T21:34:28.189Z,69.12
2023-01-31T21:37:00.833Z,70.04
2023-01-31T21:39:35.628Z,70.93
2023-01-31T21:42:19.075Z,69.99
2023-01-31T21:44:49.773Z,70.12
2023-01-31T21:47:19.839Z,70.01
2023-01-31T21:49:50.017Z,69.84
2023-01-31T21:52:20.075Z,69.76
2023-01-31T21:54:50.221Z,70.22
2023-01-31T21:57:20.028Z,70.15
2023-01-31T21:59:50.782Z,70.64
2023-01-31T22:02:20.796Z,70.92
2023-01-31T22:04:50.954Z,71.33
2023-01-31T22:07:20.730Z,71.64
2023-01-31T22:09:50.963Z,71.82
2023-01-31T22:12:20.708Z,72.25
2023-01-31T22:14:50.839Z,72.40
2023-01-31T22:17:20.715Z,72.79
2023-01-31T22:19:50.707Z,73.25
2023-01-31T22:22:20.528Z,73.10
2023-01-31T22:24:50.736Z,73.52
2023-01-31T22:27:20.529Z,73.23
2023-01-31T22:29:50.804Z,73.46
2023-01-31T22:32:21.300Z,73.67
2023-01-31T22:34:51.725Z,73.58
2023-01-31T22:37:21.463Z,73.20
2023-01-31T22:39:51.489Z,73.07
2023-01-31T22:42:21.247Z,73.47
2023-01-31T22:44:51.460Z,72.90
2023-01-31T22:47:22.403Z,72.97
2023-01-31T22:49:53.592Z,73.02
2023-01-31T22:52:24.517Z,73.06
2023-01-31T22:54:57.817Z,73.29
2023-01-31T22:57:28.720Z,74.40
2023-01-31T22:59:58.746Z,75.08
2023-01-31T23:10:40.289Z,73.48
2023-01-31T23:13:11.780Z,73.76
2023-01-31T23:15:42.212Z,73.44
2023-01-31T23:18:17.420Z,73.35
2023-01-31T23:20:47.616Z,73.37
2023-01-31T23:23:18.029Z,73.86
2023-01-31T23:25:51.940Z,74.22
2023-01-31T23:28:22.010Z,75.07
2023-01-31T23:30:51.891Z,75.06
2023-01-31T23:33:22.603Z,75.24
2023-01-31T23:35:53.463Z,75.53
2023-01-31T23:38:25.885Z,75.70
2023-01-31T23:40:56.864Z,75.89
2023-01-31T23:43:27.620Z,75.83
2023-01-31T23:45:59.177Z,75.35
2023-01-31T23:48:30.679Z,75.41
2023-01-31T23:51:09.617Z,75.68
2023-01-31T23:53:42.417Z,75.89
2023-01-31T23:56:12.324Z,76.07
2023-01-31T23:58:42.270Z,75.98
